sensor_id;sensor_type;location;lat;lon;timestamp;pressure;altitude;pressure_sealevel;temperature;humidity
9525;BME280;15940;48.734;9.112;2023-03-15T00:01:58;96112.25;;;0.67;89.96
9525;BME280;15940;48.734;9.112;2023-03-15T00:04:25;96125.69;;;0.85;91.99
9525;BME280;15940;48.734;9.112;2023-03-15T00:06:52;96137.97;;;0.95;91.47
9525;BME280;15940;48.734;9.112;2023-03-15T00:09:19;96138.50;;;0.90;91.55
9525;BME280;15940;48.734;9.112;2023-03-15T00:11:50;96140.25;;;0.71;90.34
9525;BME280;15940;48.734;9.112;2023-03-15T00:14:19;96153.28;;;0.69;91.93
9525;BME280;15940;48.734;9.112;2023-03-15T00:16:46;96163.19;;;0.69;91.05
9525;BME280;15940;48.734;9.112;2023-03-15T00:19:13;96179.28;;;0.65;90.88
9525;BME280;15940;48.734;9.112;2023-03-15T00:21:40;96179.84;;;0.95;92.70
9525;BME280;15940;48.734;9.112;2023-03-15T00:24:08;96174.09;;;0.96;91.43
9525;BME280;15940;48.734;9.112;2023-03-15T00:26:36;96188.88;;;1.10;92.90
9525;BME280;15940;48.734;9.112;2023-03-15T00:29:04;96180.06;;;1.00;91.57
9525;BME280;15940;48.734;9.112;2023-03-15T00:31:31;96181.03;;;0.94;90.61
9525;BME280;15940;48.734;9.112;2023-03-15T00:33:58;96189.28;;;0.87;90.42
9525;BME280;15940;48.734;9.112;2023-03-15T00:36:25;96197.22;;;0.99;91.75
9525;BME280;15940;48.734;9.112;2023-03-15T00:38:54;96192.22;;;1.01;91.49
9525;BME280;15940;48.734;9.112;2023-03-15T00:41:22;96203.56;;;0.80;89.71
9525;BME280;15940;48.734;9.112;2023-03-15T00:43:50;96207.72;;;0.81;91.05
9525;BME280;15940;48.734;9.112;2023-03-15T00:46:19;96215.78;;;1.03;92.02
9525;BME280;15940;48.734;9.112;2023-03-15T00:48:50;96212.13;;;1.09;90.90
9525;BME280;15940;48.734;9.112;2023-03-15T00:51:20;96214.94;;;1.06;91.03
9525;BME280;15940;48.734;9.112;2023-03-15T00:53:49;96230.06;;;1.09;88.96
9525;BME280;15940;48.734;9.112;2023-03-15T00:56:20;96230.84;;;0.84;89.41
9525;BME280;15940;48.734;9.112;2023-03-15T00:58:47;96245.34;;;0.83;89.57
9525;BME280;15940;48.734;9.112;2023-03-15T01:01:17;96243.69;;;0.64;89.49
9525;BME280;15940;48.734;9.112;2023-03-15T01:03:46;96237.06;;;0.68;91.87
9525;BME280;15940;48.734;9.112;2023-03-15T01:06:15;96245.06;;;0.68;91.50
9525;BME280;15940;48.734;9.112;2023-03-15T01:08:43;96240.47;;;0.81;91.82
9525;BME280;15940;48.734;9.112;2023-03-15T01:11:13;96253.25;;;0.87;90.83
9525;BME280;15940;48.734;9.112;2023-03-15T01:13:40;96250.59;;;0.74;91.75
9525;BME280;15940;48.734;9.112;2023-03-15T01:16:10;96250.16;;;0.75;90.65
9525;BME280;15940;48.734;9.112;2023-03-15T01:18:38;96257.75;;;0.51;89.39
9525;BME280;15940;48.734;9.112;2023-03-15T01:21:08;96257.75;;;0.51;89.07
9525;BME280;15940;48.734;9.112;2023-03-15T01:23:36;96264.47;;;0.43;89.33
9525;BME280;15940;48.734;9.112;2023-03-15T01:26:05;96258.41;;;0.43;89.27
9525;BME280;15940;48.734;9.112;2023-03-15T01:28:32;96255.75;;;0.30;89.89
9525;BME280;15940;48.734;9.112;2023-03-15T01:30:59;96260.41;;;0.26;91.05
9525;BME280;15940;48.734;9.112;2023-03-15T01:33:26;96252.84;;;0.63;92.57
9525;BME280;15940;48.734;9.112;2023-03-15T01:35:58;96261.91;;;0.52;89.90
9525;BME280;15940;48.734;9.112;2023-03-15T01:38:27;96274.38;;;0.43;89.84
9525;BME280;15940;48.734;9.112;2023-03-15T01:40:54;96268.00;;;0.40;90.95
9525;BME280;15940;48.734;9.112;2023-03-15T01:43:23;96269.69;;;0.47;91.26
9525;BME280;15940;48.734;9.112;2023-03-15T01:46:27;96278.84;;;0.46;90.20
9525;BME280;15940;48.734;9.112;2023-03-15T01:49:04;96278.75;;;0.62;91.75
9525;BME280;15940;48.734;9.112;2023-03-15T01:51:36;96283.44;;;0.45;90.32
9525;BME280;15940;48.734;9.112;2023-03-15T01:54:14;96288.56;;;0.65;91.74
9525;BME280;15940;48.734;9.112;2023-03-15T01:56:45;96289.72;;;0.64;91.90
9525;BME280;15940;48.734;9.112;2023-03-15T01:59:18;96292.81;;;0.63;90.46
9525;BME280;15940;48.734;9.112;2023-03-15T02:01:48;96294.22;;;0.67;90.48
9525;BME280;15940;48.734;9.112;2023-03-15T02:04:23;96292.81;;;0.63;90.69
9525;BME280;15940;48.734;9.112;2023-03-15T02:06:52;96300.59;;;0.44;88.16
9525;BME280;15940;48.734;9.112;2023-03-15T02:09:31;96297.94;;;0.70;91.64
9525;BME280;15940;48.734;9.112;2023-03-15T02:12:01;96305.41;;;0.49;89.90
9525;BME280;15940;48.734;9.112;2023-03-15T02:14:31;96309.00;;;0.43;88.91
9525;BME280;15940;48.734;9.112;2023-03-15T02:16:58;96305.94;;;0.57;88.83
9525;BME280;15940;48.734;9.112;2023-03-15T02:19:38;96306.91;;;0.63;89.23
9525;BME280;15940;48.734;9.112;2023-03-15T02:22:19;96311.06;;;0.51;87.45
9525;BME280;15940;48.734;9.112;2023-03-15T02:24:54;96310.63;;;0.53;88.65
9525;BME280;15940;48.734;9.112;2023-03-15T02:27:27;96314.34;;;0.43;89.02
9525;BME280;15940;48.734;9.112;2023-03-15T02:29:56;96311.47;;;0.63;88.83
9525;BME280;15940;48.734;9.112;2023-03-15T02:32:23;96323.97;;;0.78;90.17
9525;BME280;15940;48.734;9.112;2023-03-15T02:34:50;96322.78;;;0.79;88.90
9525;BME280;15940;48.734;9.112;2023-03-15T02:37:17;96329.50;;;0.84;88.36
9525;BME280;15940;48.734;9.112;2023-03-15T02:39:44;96339.19;;;0.91;87.19
9525;BME280;15940;48.734;9.112;2023-03-15T02:42:11;96341.25;;;0.87;87.86
9525;BME280;15940;48.734;9.112;2023-03-15T02:44:42;96346.03;;;0.92;87.71
9525;BME280;15940;48.734;9.112;2023-03-15T02:47:13;96341.44;;;0.79;87.79
9525;BME280;15940;48.734;9.112;2023-03-15T02:49:47;96351.47;;;0.75;88.37
9525;BME280;15940;48.734;9.112;2023-03-15T02:52:15;96351.91;;;0.87;87.50
9525;BME280;15940;48.734;9.112;2023-03-15T02:54:42;96362.13;;;1.01;87.85
9525;BME280;15940;48.734;9.112;2023-03-15T02:57:10;96365.66;;;0.98;84.45
9525;BME280;15940;48.734;9.112;2023-03-15T02:59:39;96365.00;;;0.81;86.06
9525;BME280;15940;48.734;9.112;2023-03-15T03:02:08;96374.28;;;0.76;85.29
9525;BME280;15940;48.734;9.112;2023-03-15T03:04:36;96376.63;;;0.74;87.55
9525;BME280;15940;48.734;9.112;2023-03-15T03:07:04;96384.72;;;0.83;87.11
9525;BME280;15940;48.734;9.112;2023-03-15T03:09:31;96390.19;;;0.93;87.28
9525;BME280;15940;48.734;9.112;2023-03-15T03:11:58;96395.00;;;0.98;86.56
9525;BME280;15940;48.734;9.112;2023-03-15T03:14:25;96407.78;;;0.90;85.24
9525;BME280;15940;48.734;9.112;2023-03-15T03:16:53;96413.00;;;0.81;85.98
9525;BME280;15940;48.734;9.112;2023-03-15T03:19:20;96404.38;;;0.77;86.29
9525;BME280;15940;48.734;9.112;2023-03-15T03:21:50;96408.47;;;0.52;86.23
9525;BME280;15940;48.734;9.112;2023-03-15T03:24:18;96414.44;;;0.56;89.00
9525;BME280;15940;48.734;9.112;2023-03-15T03:26:46;96420.53;;;0.28;84.77
9525;BME280;15940;48.734;9.112;2023-03-15T03:29:13;96425.47;;;0.30;87.39
9525;BME280;15940;48.734;9.112;2023-03-15T03:31:41;96422.06;;;0.29;86.36
9525;BME280;15940;48.734;9.112;2023-03-15T03:34:10;96439.28;;;0.53;88.30
9525;BME280;15940;48.734;9.112;2023-03-15T03:36:40;96440.81;;;0.67;88.26
9525;BME280;15940;48.734;9.112;2023-03-15T03:39:07;96443.38;;;0.71;87.61
9525;BME280;15940;48.734;9.112;2023-03-15T03:41:34;96440.06;;;0.67;85.00
9525;BME280;15940;48.734;9.112;2023-03-15T03:44:01;96438.47;;;0.82;87.27
9525;BME280;15940;48.734;9.112;2023-03-15T03:46:28;96449.13;;;0.69;86.54
9525;BME280;15940;48.734;9.112;2023-03-15T03:48:55;96444.41;;;0.61;87.20
9525;BME280;15940;48.734;9.112;2023-03-15T03:51:23;96446.66;;;0.75;86.90
9525;BME280;15940;48.734;9.112;2023-03-15T03:53:50;96451.75;;;0.56;85.12
9525;BME280;15940;48.734;9.112;2023-03-15T03:56:17;96465.28;;;0.49;83.46
9525;BME280;15940;48.734;9.112;2023-03-15T03:58:44;96461.25;;;0.28;83.55
9525;BME280;15940;48.734;9.112;2023-03-15T04:01:14;96465.28;;;0.49;87.23
9525;BME280;15940;48.734;9.112;2023-03-15T04:03:41;96470.22;;;0.64;84.08
9525;BME280;15940;48.734;9.112;2023-03-15T04:06:07;96480.88;;;0.64;85.16
9525;BME280;15940;48.734;9.112;2023-03-15T04:08:36;96483.03;;;0.69;86.25
9525;BME280;15940;48.734;9.112;2023-03-15T04:11:03;96483.94;;;0.49;83.40
9525;BME280;15940;48.734;9.112;2023-03-15T04:13:30;96490.69;;;0.38;85.56
9525;BME280;15940;48.734;9.112;2023-03-15T04:15:57;96500.94;;;0.39;85.42
9525;BME280;15940;48.734;9.112;2023-03-15T04:18:26;96504.81;;;0.51;85.62
9525;BME280;15940;48.734;9.112;2023-03-15T04:20:53;96499.44;;;0.38;84.04
9525;BME280;15940;48.734;9.112;2023-03-15T04:23:21;96503.50;;;0.43;86.14
9525;BME280;15940;48.734;9.112;2023-03-15T04:25:51;96510.31;;;0.44;84.56
9525;BME280;15940;48.734;9.112;2023-03-15T04:28:20;96509.59;;;0.43;85.03
9525;BME280;15940;48.734;9.112;2023-03-15T04:30:47;96508.78;;;0.30;86.52
9525;BME280;15940;48.734;9.112;2023-03-15T04:33:15;96511.16;;;0.57;86.33
9525;BME280;15940;48.734;9.112;2023-03-15T04:35:42;96519.63;;;0.52;84.93
9525;BME280;15940;48.734;9.112;2023-03-15T04:38:09;96512.41;;;0.36;85.86
9525;BME280;15940;48.734;9.112;2023-03-15T04:40:36;96510.19;;;0.35;83.84
9525;BME280;15940;48.734;9.112;2023-03-15T04:43:05;96516.19;;;0.22;85.22
9525;BME280;15940;48.734;9.112;2023-03-15T04:45:32;96520.19;;;0.14;85.36
9525;BME280;15940;48.734;9.112;2023-03-15T04:47:59;96526.63;;;0.46;86.90
9525;BME280;15940;48.734;9.112;2023-03-15T04:50:28;96528.34;;;0.40;85.29
9525;BME280;15940;48.734;9.112;2023-03-15T04:52:57;96524.72;;;0.46;85.46
9525;BME280;15940;48.734;9.112;2023-03-15T04:55:24;96526.03;;;0.54;85.55
9525;BME280;15940;48.734;9.112;2023-03-15T04:57:51;96523.16;;;0.49;85.96
9525;BME280;15940;48.734;9.112;2023-03-15T05:00:20;96527.75;;;0.48;84.89
9525;BME280;15940;48.734;9.112;2023-03-15T05:02:47;96514.25;;;0.39;84.98
9525;BME280;15940;48.734;9.112;2023-03-15T05:05:20;96524.41;;;0.44;84.37
9525;BME280;15940;48.734;9.112;2023-03-15T05:07:48;96521.72;;;0.44;85.36
9525;BME280;15940;48.734;9.112;2023-03-15T05:10:15;96516.97;;;0.52;85.87
9525;BME280;15940;48.734;9.112;2023-03-15T05:12:42;96519.47;;;0.59;83.56
9525;BME280;15940;48.734;9.112;2023-03-15T05:15:10;96525.22;;;0.57;82.50
9525;BME280;15940;48.734;9.112;2023-03-15T05:17:38;96521.66;;;0.48;82.02
9525;BME280;15940;48.734;9.112;2023-03-15T05:20:09;96520.75;;;0.38;83.23
9525;BME280;15940;48.734;9.112;2023-03-15T05:22:36;96522.06;;;0.46;84.86
9525;BME280;15940;48.734;9.112;2023-03-15T05:25:05;96516.69;;;0.34;84.10
9525;BME280;15940;48.734;9.112;2023-03-15T05:27:32;96525.53;;;0.31;82.62
9525;BME280;15940;48.734;9.112;2023-03-15T05:29:59;96520.69;;;0.09;83.10
9525;BME280;15940;48.734;9.112;2023-03-15T05:32:28;96519.66;;;0.36;85.24
9525;BME280;15940;48.734;9.112;2023-03-15T05:35:00;96523.72;;;0.11;82.45
9525;BME280;15940;48.734;9.112;2023-03-15T05:37:27;96531.03;;;-0.09;82.23
9525;BME280;15940;48.734;9.112;2023-03-15T05:39:55;96531.44;;;-0.11;83.08
9525;BME280;15940;48.734;9.112;2023-03-15T05:42:22;96533.34;;;0.05;84.34
9525;BME280;15940;48.734;9.112;2023-03-15T05:44:51;96533.19;;;-0.20;84.30
9525;BME280;15940;48.734;9.112;2023-03-15T05:47:18;96532.94;;;0.07;85.55
9525;BME280;15940;48.734;9.112;2023-03-15T05:49:46;96536.03;;;0.05;84.65
9525;BME280;15940;48.734;9.112;2023-03-15T05:52:15;96530.84;;;-0.02;83.36
9525;BME280;15940;48.734;9.112;2023-03-15T05:54:42;96538.94;;;0.11;84.07
9525;BME280;15940;48.734;9.112;2023-03-15T05:57:09;96533.25;;;0.09;84.57
9525;BME280;15940;48.734;9.112;2023-03-15T05:59:36;96539.94;;;0.01;84.07
9525;BME280;15940;48.734;9.112;2023-03-15T06:02:03;96528.94;;;0.15;82.82
9525;BME280;15940;48.734;9.112;2023-03-15T06:04:30;96537.69;;;-0.01;82.94
9525;BME280;15940;48.734;9.112;2023-03-15T06:06:57;96538.78;;;0.02;83.29
9525;BME280;15940;48.734;9.112;2023-03-15T06:09:26;96538.34;;;-0.13;81.07
9525;BME280;15940;48.734;9.112;2023-03-15T06:11:52;96535.59;;;-0.26;81.64
9525;BME280;15940;48.734;9.112;2023-03-15T06:14:20;96540.34;;;-0.17;82.97
9525;BME280;15940;48.734;9.112;2023-03-15T06:16:47;96551.06;;;-0.05;81.99
9525;BME280;15940;48.734;9.112;2023-03-15T06:19:14;96553.31;;;0.30;84.88
9525;BME280;15940;48.734;9.112;2023-03-15T06:21:41;96554.78;;;0.47;84.06
9525;BME280;15940;48.734;9.112;2023-03-15T06:24:08;96554.94;;;0.56;83.20
9525;BME280;15940;48.734;9.112;2023-03-15T06:26:36;96558.38;;;0.85;81.31
9525;BME280;15940;48.734;9.112;2023-03-15T06:29:03;96562.88;;;1.01;82.09
9525;BME280;15940;48.734;9.112;2023-03-15T06:31:30;96569.56;;;0.93;79.71
9525;BME280;15940;48.734;9.112;2023-03-15T06:33:57;96571.22;;;1.03;79.96
9525;BME280;15940;48.734;9.112;2023-03-15T06:36:24;96573.25;;;1.12;80.68
9525;BME280;15940;48.734;9.112;2023-03-15T06:38:51;96569.56;;;0.93;78.23
9525;BME280;15940;48.734;9.112;2023-03-15T06:41:19;96561.44;;;0.84;76.89
9525;BME280;15940;48.734;9.112;2023-03-15T06:43:48;96574.00;;;1.12;78.59
9525;BME280;15940;48.734;9.112;2023-03-15T06:46:15;96565.75;;;0.94;76.63
9525;BME280;15940;48.734;9.112;2023-03-15T06:48:42;96574.22;;;0.76;77.07
9525;BME280;15940;48.734;9.112;2023-03-15T06:51:09;96579.75;;;0.69;77.29
9525;BME280;15940;48.734;9.112;2023-03-15T06:53:36;96581.06;;;0.77;79.28
9525;BME280;15940;48.734;9.112;2023-03-15T06:56:03;96573.84;;;0.91;77.17
9525;BME280;15940;48.734;9.112;2023-03-15T06:58:30;96576.28;;;1.14;78.18
9525;BME280;15940;48.734;9.112;2023-03-15T07:00:58;96578.84;;;1.18;77.43
9525;BME280;15940;48.734;9.112;2023-03-15T07:03:26;96580.19;;;1.09;76.13
9525;BME280;15940;48.734;9.112;2023-03-15T07:05:52;96575.47;;;1.01;76.37
9525;BME280;15940;48.734;9.112;2023-03-15T07:08:21;96590.88;;;1.09;76.02
9525;BME280;15940;48.734;9.112;2023-03-15T07:10:48;96586.66;;;1.25;76.64
9525;BME280;15940;48.734;9.112;2023-03-15T07:13:16;96584.13;;;1.34;75.94
9525;BME280;15940;48.734;9.112;2023-03-15T07:15:43;96590.56;;;1.62;76.16
9525;BME280;15940;48.734;9.112;2023-03-15T07:18:13;96585.84;;;1.66;75.47
9525;BME280;15940;48.734;9.112;2023-03-15T07:20:40;96592.25;;;1.56;74.26
9525;BME280;15940;48.734;9.112;2023-03-15T07:23:07;96597.28;;;1.66;74.44
9525;BME280;15940;48.734;9.112;2023-03-15T07:25:37;96599.44;;;1.84;73.68
9525;BME280;15940;48.734;9.112;2023-03-15T07:28:04;96603.50;;;2.02;73.81
9525;BME280;15940;48.734;9.112;2023-03-15T07:30:31;96596.00;;;2.22;75.22
9525;BME280;15940;48.734;9.112;2023-03-15T07:32:58;96596.63;;;2.26;71.90
9525;BME280;15940;48.734;9.112;2023-03-15T07:35:26;96604.53;;;2.29;72.07
9525;BME280;15940;48.734;9.112;2023-03-15T07:37:53;96613.41;;;2.39;72.16
9525;BME280;15940;48.734;9.112;2023-03-15T07:40:20;96606.00;;;2.56;72.22
9525;BME280;15940;48.734;9.112;2023-03-15T07:42:47;96614.16;;;2.74;72.03
9525;BME280;15940;48.734;9.112;2023-03-15T07:45:14;96601.31;;;2.82;72.10
9525;BME280;15940;48.734;9.112;2023-03-15T07:47:41;96615.28;;;3.21;70.62
9525;BME280;15940;48.734;9.112;2023-03-15T07:50:09;96611.44;;;3.43;71.62
9525;BME280;15940;48.734;9.112;2023-03-15T07:52:39;96617.66;;;4.03;69.22
9525;BME280;15940;48.734;9.112;2023-03-15T07:55:06;96612.56;;;4.26;66.74
9525;BME280;15940;48.734;9.112;2023-03-15T07:57:34;96611.09;;;3.94;67.54
9525;BME280;15940;48.734;9.112;2023-03-15T08:00:01;96607.13;;;4.08;66.58
9525;BME280;15940;48.734;9.112;2023-03-15T08:02:28;96619.78;;;4.17;68.76
9525;BME280;15940;48.734;9.112;2023-03-15T08:04:55;96609.34;;;4.68;66.42
9525;BME280;15940;48.734;9.112;2023-03-15T08:07:23;96615.03;;;4.88;64.45
9525;BME280;15940;48.734;9.112;2023-03-15T08:09:51;96616.41;;;4.93;65.30
9525;BME280;15940;48.734;9.112;2023-03-15T08:12:18;96619.00;;;4.38;65.44
9525;BME280;15940;48.734;9.112;2023-03-15T08:14:45;96619.59;;;4.51;64.31
9525;BME280;15940;48.734;9.112;2023-03-15T08:17:12;96628.66;;;4.26;64.43
9525;BME280;15940;48.734;9.112;2023-03-15T08:19:40;96622.47;;;4.08;65.30
9525;BME280;15940;48.734;9.112;2023-03-15T08:22:08;96621.63;;;4.20;64.35
9525;BME280;15940;48.734;9.112;2023-03-15T08:24:35;96618.06;;;4.32;64.64
9525;BME280;15940;48.734;9.112;2023-03-15T08:27:04;96618.75;;;4.73;65.47
9525;BME280;15940;48.734;9.112;2023-03-15T08:29:31;96615.94;;;4.76;63.31
9525;BME280;15940;48.734;9.112;2023-03-15T08:31:58;96619.22;;;5.08;63.25
9525;BME280;15940;48.734;9.112;2023-03-15T08:34:25;96615.31;;;5.27;60.93
9525;BME280;15940;48.734;9.112;2023-03-15T08:36:52;96627.22;;;5.54;60.34
9525;BME280;15940;48.734;9.112;2023-03-15T08:39:19;96620.22;;;5.47;59.95
9525;BME280;15940;48.734;9.112;2023-03-15T08:41:48;96628.94;;;5.93;60.73
9525;BME280;15940;48.734;9.112;2023-03-15T08:44:17;96629.25;;;5.77;58.39
9525;BME280;15940;48.734;9.112;2023-03-15T08:46:44;96626.34;;;6.17;59.22
9525;BME280;15940;48.734;9.112;2023-03-15T08:49:11;96633.34;;;6.96;58.41
9525;BME280;15940;48.734;9.112;2023-03-15T08:51:38;96625.44;;;6.44;55.23
9525;BME280;15940;48.734;9.112;2023-03-15T08:54:05;96638.59;;;6.75;58.55
9525;BME280;15940;48.734;9.112;2023-03-15T08:56:32;96638.31;;;6.73;57.16
9525;BME280;15940;48.734;9.112;2023-03-15T08:58:59;96633.03;;;6.79;57.74
9525;BME280;15940;48.734;9.112;2023-03-15T09:01:27;96638.00;;;6.47;58.38
9525;BME280;15940;48.734;9.112;2023-03-15T09:03:55;96651.91;;;6.46;57.79
9525;BME280;15940;48.734;9.112;2023-03-15T09:06:22;96650.25;;;6.48;59.04
9525;BME280;15940;48.734;9.112;2023-03-15T09:08:49;96654.13;;;6.14;57.68
9525;BME280;15940;48.734;9.112;2023-03-15T09:11:18;96649.91;;;6.22;58.49
9525;BME280;15940;48.734;9.112;2023-03-15T09:13:45;96654.16;;;6.05;58.90
9525;BME280;15940;48.734;9.112;2023-03-15T09:16:12;96655.66;;;6.39;59.29
9525;BME280;15940;48.734;9.112;2023-03-15T09:18:40;96657.44;;;6.42;55.47
9525;BME280;15940;48.734;9.112;2023-03-15T09:21:08;96667.91;;;6.07;58.15
9525;BME280;15940;48.734;9.112;2023-03-15T09:23:35;96663.47;;;5.58;59.02
9525;BME280;15940;48.734;9.112;2023-03-15T09:26:02;96668.44;;;5.41;58.65
9525;BME280;15940;48.734;9.112;2023-03-15T09:28:29;96656.94;;;4.95;59.66
9525;BME280;15940;48.734;9.112;2023-03-15T09:30:56;96667.38;;;4.93;61.14
9525;BME280;15940;48.734;9.112;2023-03-15T09:33:23;96667.38;;;4.93;61.35
9525;BME280;15940;48.734;9.112;2023-03-15T09:35:52;96673.03;;;4.86;62.02
9525;BME280;15940;48.734;9.112;2023-03-15T09:38:18;96680.19;;;4.89;61.11
9525;BME280;15940;48.734;9.112;2023-03-15T09:40:46;96675.81;;;4.73;61.06
9525;BME280;15940;48.734;9.112;2023-03-15T09:43:58;96670.75;;;4.57;61.69
9525;BME280;15940;48.734;9.112;2023-03-15T09:46:30;96669.41;;;4.71;64.18
9525;BME280;15940;48.734;9.112;2023-03-15T09:49:04;96675.06;;;4.64;61.74
9525;BME280;15940;48.734;9.112;2023-03-15T09:51:43;96672.22;;;4.58;62.40
9525;BME280;15940;48.734;9.112;2023-03-15T09:54:15;96678.81;;;4.66;61.24
9525;BME280;15940;48.734;9.112;2023-03-15T09:56:52;96683.25;;;4.60;61.41
9525;BME280;15940;48.734;9.112;2023-03-15T09:59:31;96690.13;;;4.70;60.76
9525;BME280;15940;48.734;9.112;2023-03-15T10:02:03;96684.78;;;4.70;59.67
9525;BME280;15940;48.734;9.112;2023-03-15T10:04:43;96679.00;;;4.90;62.34
9525;BME280;15940;48.734;9.112;2023-03-15T10:07:14;96679.31;;;5.29;58.39
9525;BME280;15940;48.734;9.112;2023-03-15T10:09:41;96676.13;;;5.94;60.66
9525;BME280;15940;48.734;9.112;2023-03-15T10:12:11;96687.41;;;6.59;56.71
9525;BME280;15940;48.734;9.112;2023-03-15T10:18:27;96680.50;;;6.67;55.25
9525;BME280;15940;48.734;9.112;2023-03-15T10:21:09;96677.47;;;6.98;55.86
9525;BME280;15940;48.734;9.112;2023-03-15T10:23:45;96680.75;;;7.02;53.55
9525;BME280;15940;48.734;9.112;2023-03-15T10:26:18;96678.22;;;6.99;55.09
9525;BME280;15940;48.734;9.112;2023-03-15T10:28:48;96671.63;;;7.38;53.20
9525;BME280;15940;48.734;9.112;2023-03-15T10:31:20;96672.88;;;7.52;53.43
9525;BME280;15940;48.734;9.112;2023-03-15T10:33:49;96668.03;;;7.56;53.42
9525;BME280;15940;48.734;9.112;2023-03-15T10:36:19;96667.88;;;7.89;53.20
9525;BME280;15940;48.734;9.112;2023-03-15T10:38:48;96666.47;;;7.50;51.27
9525;BME280;15940;48.734;9.112;2023-03-15T10:41:29;96660.09;;;7.23;51.54
9525;BME280;15940;48.734;9.112;2023-03-15T10:43:59;96659.50;;;7.19;54.04
9525;BME280;15940;48.734;9.112;2023-03-15T10:46:27;96662.31;;;7.78;53.44
9525;BME280;15940;48.734;9.112;2023-03-15T10:48:57;96658.66;;;8.11;51.83
9525;BME280;15940;48.734;9.112;2023-03-15T10:51:28;96669.25;;;8.29;49.00
9525;BME280;15940;48.734;9.112;2023-03-15T10:54:00;96648.91;;;7.98;52.62
9525;BME280;15940;48.734;9.112;2023-03-15T10:56:30;96662.00;;;7.61;52.26
9525;BME280;15940;48.734;9.112;2023-03-15T10:59:00;96657.63;;;7.49;50.28
9525;BME280;15940;48.734;9.112;2023-03-15T11:01:29;96658.00;;;7.57;53.56
9525;BME280;15940;48.734;9.112;2023-03-15T11:04:08;96662.72;;;7.32;52.09
9525;BME280;15940;48.734;9.112;2023-03-15T11:06:41;96666.59;;;6.93;51.48
9525;BME280;15940;48.734;9.112;2023-03-15T11:09:13;96667.03;;;6.91;53.35
9525;BME280;15940;48.734;9.112;2023-03-15T11:11:54;96671.16;;;6.77;53.65
9525;BME280;15940;48.734;9.112;2023-03-15T11:14:22;96657.25;;;6.55;55.13
9525;BME280;15940;48.734;9.112;2023-03-15T11:16:53;96664.84;;;6.56;54.99
9525;BME280;15940;48.734;9.112;2023-03-15T11:19:24;96671.50;;;6.46;57.35
9525;BME280;15940;48.734;9.112;2023-03-15T11:21:53;96666.19;;;6.28;53.87
9525;BME280;15940;48.734;9.112;2023-03-15T11:24:26;96660.94;;;6.24;56.58
9525;BME280;15940;48.734;9.112;2023-03-15T11:26:54;96664.53;;;6.30;54.97
9525;BME280;15940;48.734;9.112;2023-03-15T11:29:28;96664.78;;;6.42;56.15
9525;BME280;15940;48.734;9.112;2023-03-15T11:31:59;96660.13;;;6.42;54.73
9525;BME280;15940;48.734;9.112;2023-03-15T11:34:37;96656.94;;;6.53;56.09
9525;BME280;15940;48.734;9.112;2023-03-15T11:37:13;96658.31;;;6.48;52.91
9525;BME280;15940;48.734;9.112;2023-03-15T11:39:46;96659.09;;;6.40;54.97
9525;BME280;15940;48.734;9.112;2023-03-15T11:42:22;96656.38;;;6.49;55.77
9525;BME280;15940;48.734;9.112;2023-03-15T11:44:57;96664.16;;;6.47;54.10
9525;BME280;15940;48.734;9.112;2023-03-15T11:47:39;96650.66;;;6.23;51.90
9525;BME280;15940;48.734;9.112;2023-03-15T11:50:10;96661.78;;;6.07;53.01
9525;BME280;15940;48.734;9.112;2023-03-15T11:52:39;96661.78;;;6.07;49.87
9525;BME280;15940;48.734;9.112;2023-03-15T11:55:18;96662.06;;;6.09;51.64
9525;BME280;15940;48.734;9.112;2023-03-15T11:57:46;96658.16;;;6.19;53.24
9525;BME280;15940;48.734;9.112;2023-03-15T12:00:47;96655.56;;;6.24;51.19
9525;BME280;15940;48.734;9.112;2023-03-15T12:03:35;96658.81;;;6.38;51.75
9525;BME280;15940;48.734;9.112;2023-03-15T12:06:34;96647.41;;;6.43;48.52
9525;BME280;15940;48.734;9.112;2023-03-15T12:09:02;96651.13;;;6.78;52.99
9525;BME280;15940;48.734;9.112;2023-03-15T12:11:53;96655.06;;;7.16;49.61
9525;BME280;15940;48.734;9.112;2023-03-15T12:14:29;96654.31;;;7.15;48.74
9525;BME280;15940;48.734;9.112;2023-03-15T12:17:42;96658.84;;;7.09;47.88
9525;BME280;15940;48.734;9.112;2023-03-15T12:20:20;96659.69;;;7.15;48.65
9525;BME280;15940;48.734;9.112;2023-03-15T12:23:06;96645.69;;;7.26;48.03
9525;BME280;15940;48.734;9.112;2023-03-15T12:25:37;96655.19;;;7.36;46.94
9525;BME280;15940;48.734;9.112;2023-03-15T12:28:21;96660.69;;;7.57;51.26
9525;BME280;15940;48.734;9.112;2023-03-15T12:30:53;96651.59;;;7.54;48.44
9525;BME280;15940;48.734;9.112;2023-03-15T12:33:22;96655.31;;;7.42;48.49
9525;BME280;15940;48.734;9.112;2023-03-15T12:35:50;96656.91;;;7.49;49.89
9525;BME280;15940;48.734;9.112;2023-03-15T12:38:24;96660.25;;;7.58;49.92
9525;BME280;15940;48.734;9.112;2023-03-15T12:40:57;96657.91;;;7.66;47.54
9525;BME280;15940;48.734;9.112;2023-03-15T12:43:40;96654.56;;;7.86;51.58
9525;BME280;15940;48.734;9.112;2023-03-15T12:46:57;96646.69;;;7.97;49.18
9525;BME280;15940;48.734;9.112;2023-03-15T12:49:32;96648.13;;;7.39;48.45
9525;BME280;15940;48.734;9.112;2023-03-15T12:52:01;96655.56;;;7.44;50.50
9525;BME280;15940;48.734;9.112;2023-03-15T12:54:38;96669.16;;;7.11;49.58
9525;BME280;15940;48.734;9.112;2023-03-15T12:57:10;96659.81;;;6.97;52.72
9525;BME280;15940;48.734;9.112;2023-03-15T12:59:47;96661.75;;;6.49;50.77
9525;BME280;15940;48.734;9.112;2023-03-15T13:02:32;96661.88;;;6.21;54.71
9525;BME280;15940;48.734;9.112;2023-03-15T13:05:19;96663.63;;;6.24;56.88
9525;BME280;15940;48.734;9.112;2023-03-15T13:08:05;96677.78;;;6.01;53.33
9525;BME280;15940;48.734;9.112;2023-03-15T13:10:45;96670.72;;;6.13;54.38
9525;BME280;15940;48.734;9.112;2023-03-15T13:13:35;96667.75;;;6.44;54.00
9525;BME280;15940;48.734;9.112;2023-03-15T13:16:25;96664.06;;;6.65;53.42
9525;BME280;15940;48.734;9.112;2023-03-15T13:19:01;96664.41;;;6.82;56.44
9525;BME280;15940;48.734;9.112;2023-03-15T13:21:34;96669.72;;;6.91;56.86
9525;BME280;15940;48.734;9.112;2023-03-15T13:24:10;96666.41;;;6.96;56.97
9525;BME280;15940;48.734;9.112;2023-03-15T13:26:47;96666.88;;;6.95;55.45
9525;BME280;15940;48.734;9.112;2023-03-15T13:29:20;96660.38;;;7.25;57.48
9525;BME280;15940;48.734;9.112;2023-03-15T13:32:00;96665.22;;;7.36;56.39
9525;BME280;15940;48.734;9.112;2023-03-15T13:34:30;96669.91;;;7.50;56.51
9525;BME280;15940;48.734;9.112;2023-03-15T13:36:59;96675.97;;;7.60;54.01
9525;BME280;15940;48.734;9.112;2023-03-15T13:39:29;96680.75;;;7.41;56.60
9525;BME280;15940;48.734;9.112;2023-03-15T13:41:57;96669.09;;;6.96;57.24
9525;BME280;15940;48.734;9.112;2023-03-15T13:44:26;96677.81;;;6.67;60.56